createdAt,value
2022-11-19T00:01:34.395Z,7.83
2022-11-19T00:04:02.226Z,10.27
2022-11-19T00:06:31.392Z,9.00
2022-11-19T00:08:59.268Z,7.87
2022-11-19T00:11:46.128Z,8.20
2022-11-19T00:14:14.624Z,7.20
2022-11-19T00:16:43.689Z,26.97
2022-11-19T00:19:11.577Z,14.33
2022-11-19T00:21:40.831Z,24.37
2022-11-19T00:24:09.277Z,24.30
2022-11-19T00:26:37.123Z,21.10
2022-11-19T00:29:04.893Z,8.43
2022-11-19T00:31:32.787Z,12.03
2022-11-19T00:34:00.666Z,8.87
2022-11-19T00:36:28.501Z,9.70
2022-11-19T00:38:57.888Z,10.50
2022-11-19T00:41:25.888Z,9.53
2022-11-19T00:43:53.722Z,8.97
2022-11-19T00:46:22.267Z,8.77
2022-11-19T00:48:50.767Z,11.47
2022-11-19T00:51:19.454Z,10.67
2022-11-19T00:53:47.363Z,12.67
2022-11-19T00:56:17.466Z,10.33
2022-11-19T00:58:45.288Z,6.60
2022-11-19T01:01:13.699Z,9.33
2022-11-19T01:03:41.906Z,10.17
2022-11-19T01:06:09.906Z,9.63
2022-11-19T01:11:07.624Z,8.10
2022-11-19T01:13:42.913Z,8.97
2022-11-19T01:16:13.645Z,7.70
2022-11-19T01:18:43.247Z,7.13
2022-11-19T01:21:12.085Z,8.03
2022-11-19T01:23:40.020Z,8.57
2022-11-19T01:26:08.220Z,7.23
2022-11-19T01:28:36.027Z,10.77
2022-11-19T01:31:09.091Z,7.33
2022-11-19T01:33:37.666Z,8.03
2022-11-19T01:36:17.266Z,9.17
2022-11-19T01:38:50.722Z,8.70
2022-11-19T01:41:18.957Z,8.50
2022-11-19T01:43:47.803Z,7.43
2022-11-19T01:46:19.953Z,9.33
2022-11-19T01:48:58.470Z,8.43
2022-11-19T01:51:27.146Z,8.43
2022-11-19T01:55:03.513Z,11.13
2022-11-19T01:57:31.372Z,8.23
2022-11-19T02:00:02.268Z,9.50
2022-11-19T02:06:16.610Z,8.30
2022-11-19T02:08:45.361Z,7.60
2022-11-19T02:11:28.094Z,8.00
2022-11-19T02:14:04.154Z,11.47
2022-11-19T02:16:37.669Z,10.10
2022-11-19T02:19:52.478Z,11.27
2022-11-19T02:25:21.027Z,10.73
2022-11-19T02:28:22.648Z,11.43
2022-11-19T02:31:02.122Z,11.93
2022-11-19T02:33:30.907Z,11.63
2022-11-19T02:36:02.278Z,14.33
2022-11-19T02:38:32.001Z,13.27
2022-11-19T02:41:00.624Z,13.07
2022-11-19T02:43:33.238Z,12.73
2022-11-19T02:46:07.272Z,12.47
2022-11-19T02:48:36.853Z,11.60
2022-11-19T02:51:04.997Z,14.17
2022-11-19T02:53:32.637Z,11.13
2022-11-19T02:56:14.277Z,12.23
2022-11-19T02:59:01.019Z,11.93
2022-11-19T03:01:48.113Z,14.77
2022-11-19T03:04:30.744Z,11.90
2022-11-19T03:06:58.810Z,12.57
2022-11-19T03:09:26.559Z,16.30
2022-11-19T03:11:58.514Z,14.00
2022-11-19T03:14:45.052Z,14.13
2022-11-19T03:17:16.519Z,13.13
2022-11-19T03:19:45.528Z,13.87
2022-11-19T03:22:16.749Z,14.60
2022-11-19T03:24:45.554Z,16.80
2022-11-19T03:27:14.620Z,17.83
2022-11-19T03:29:44.110Z,16.97
2022-11-19T03:32:14.240Z,15.00
2022-11-19T03:34:41.961Z,16.00
2022-11-19T03:37:13.923Z,12.77
2022-11-19T03:39:41.650Z,15.53
2022-11-19T03:42:12.390Z,16.57
2022-11-19T03:44:41.886Z,16.93
2022-11-19T03:47:12.804Z,15.53
2022-11-19T03:49:44.002Z,18.10
2022-11-19T03:52:15.747Z,17.07
2022-11-19T03:54:43.441Z,17.50
2022-11-19T03:57:13.105Z,17.87
2022-11-19T03:59:40.981Z,15.17
2022-11-19T04:02:15.382Z,16.77
2022-11-19T04:04:44.423Z,17.00
2022-11-19T04:07:13.369Z,18.07
2022-11-19T04:09:41.468Z,17.77
2022-11-19T04:12:10.511Z,18.73
2022-11-19T04:14:39.216Z,16.67
2022-11-19T04:17:06.991Z,20.00
2022-11-19T04:19:34.796Z,18.93
2022-11-19T04:22:06.106Z,20.70
2022-11-19T04:24:34.989Z,19.67
2022-11-19T04:30:06.470Z,19.83
2022-11-19T04:33:14.075Z,20.67
2022-11-19T04:36:10.131Z,21.77
2022-11-19T04:49:08.251Z,19.53
2022-11-19T04:52:07.094Z,20.77
2022-11-19T04:58:43.200Z,18.57
2022-11-19T05:01:24.114Z,18.97
2022-11-19T05:05:03.234Z,17.83
2022-11-19T05:08:04.849Z,17.70
2022-11-19T05:10:52.542Z,15.10
2022-11-19T05:13:37.914Z,17.57
2022-11-19T05:16:26.324Z,17.50
2022-11-19T05:19:18.573Z,15.57
2022-11-19T05:26:12.770Z,18.77
2022-11-19T05:32:19.460Z,17.70
2022-11-19T05:34:47.530Z,18.67
2022-11-19T05:37:16.171Z,16.83
2022-11-19T05:39:45.534Z,17.03
2022-11-19T05:42:14.719Z,16.97
2022-11-19T05:44:43.410Z,19.37
2022-11-19T05:47:12.131Z,18.27
2022-11-19T05:49:42.405Z,16.70
2022-11-19T05:52:11.299Z,19.10
2022-11-19T05:54:40.031Z,18.03
2022-11-19T06:05:26.669Z,18.93
2022-11-19T07:12:11.828Z,24.13
2022-11-19T07:14:39.773Z,39.80
2022-11-19T07:17:07.613Z,24.77
2022-11-19T07:19:35.520Z,26.83
2022-11-19T07:22:03.505Z,26.37
2022-11-19T07:24:31.389Z,25.47
2022-11-19T07:26:59.351Z,29.60
2022-11-19T07:29:28.437Z,24.37
2022-11-19T07:31:56.403Z,24.13
2022-11-19T07:34:24.375Z,26.43
2022-11-19T07:36:52.789Z,30.90
2022-11-19T07:39:29.845Z,28.80
2022-11-19T07:42:15.782Z,23.17
2022-11-19T07:44:45.302Z,28.30
2022-11-19T07:47:13.362Z,26.80
2022-11-19T07:49:41.655Z,23.90
2022-11-19T07:52:14.397Z,26.73
2022-11-19T07:54:42.880Z,25.43
2022-11-19T07:57:35.472Z,22.43
2022-11-19T08:00:44.204Z,22.37
2022-11-19T08:03:12.307Z,24.80
2022-11-19T08:05:50.302Z,23.07
2022-11-19T08:08:18.201Z,23.37
2022-11-19T08:10:48.903Z,23.23
2022-11-19T08:13:16.742Z,22.77
2022-11-19T08:15:47.803Z,25.13
2022-11-19T08:18:18.931Z,25.03
2022-11-19T08:20:52.247Z,22.00
2022-11-19T08:23:29.821Z,24.27
2022-11-19T08:25:58.213Z,35.17
2022-11-19T08:28:28.516Z,23.30
2022-11-19T08:30:58.335Z,24.80
2022-11-19T08:33:31.281Z,21.30
2022-11-19T08:36:01.996Z,21.87
2022-11-19T08:38:37.267Z,22.63
2022-11-19T08:41:25.587Z,20.20
2022-11-19T08:44:03.900Z,23.13
2022-11-19T08:46:33.169Z,21.73
2022-11-19T08:49:20.405Z,22.07
2022-11-19T08:52:21.748Z,22.27
2022-11-19T08:54:50.105Z,19.57
2022-11-19T08:57:34.845Z,21.63
2022-11-19T09:00:06.487Z,20.90
2022-11-19T09:03:14.875Z,21.53
2022-11-19T09:05:49.518Z,19.50
2022-11-19T09:12:27.244Z,22.37
2022-11-19T09:15:36.330Z,23.50
2022-11-19T09:18:34.830Z,21.07
2022-11-19T09:21:04.450Z,20.83
2022-11-19T09:23:34.636Z,23.53
2022-11-19T09:26:20.508Z,21.47
2022-11-19T09:28:57.311Z,21.13
2022-11-19T09:31:28.122Z,18.87
2022-11-19T09:34:09.249Z,21.43
2022-11-19T09:40:34.376Z,19.97
2022-11-19T09:43:15.200Z,21.77
2022-11-19T09:45:53.022Z,20.53
2022-11-19T09:48:28.019Z,17.73
2022-11-19T09:51:04.081Z,22.17
2022-11-19T09:53:34.563Z,21.47
2022-11-19T09:56:07.645Z,23.97
2022-11-19T09:58:39.806Z,21.73
2022-11-19T10:01:33.255Z,20.60
2022-11-19T10:04:02.168Z,20.40
2022-11-19T10:06:44.090Z,22.83
2022-11-19T10:09:38.574Z,21.30
2022-11-19T10:12:42.257Z,23.80
2022-11-19T10:15:37.182Z,19.43
2022-11-19T10:18:16.908Z,21.63
2022-11-19T10:21:03.758Z,20.27
2022-11-19T10:23:46.293Z,23.03
2022-11-19T10:26:20.050Z,19.33
2022-11-19T10:29:18.466Z,21.43
2022-11-19T10:31:56.425Z,19.73
2022-11-19T10:34:30.244Z,20.10
2022-11-19T10:37:03.045Z,22.67
2022-11-19T10:39:44.723Z,22.27
2022-11-19T10:42:26.288Z,21.47
2022-11-19T10:45:17.975Z,20.37
2022-11-19T10:48:08.856Z,23.33
2022-11-19T10:50:44.991Z,23.77
2022-11-19T10:53:21.104Z,23.37
2022-11-19T10:55:57.402Z,19.67
2022-11-19T10:58:32.090Z,23.43
2022-11-19T11:01:01.261Z,20.63
2022-11-19T11:03:32.558Z,22.93
2022-11-19T11:06:02.037Z,22.73
2022-11-19T11:08:31.296Z,19.60
2022-11-19T11:11:00.826Z,20.70
2022-11-19T11:13:56.138Z,20.10
2022-11-19T11:16:24.950Z,18.60
2022-11-19T11:18:53.652Z,19.50
2022-11-19T11:21:40.622Z,24.00
2022-11-19T11:24:08.632Z,20.73
2022-11-19T11:26:38.200Z,19.23
2022-11-19T11:29:08.695Z,18.93
2022-11-19T11:31:38.605Z,18.30
2022-11-19T11:34:07.125Z,18.90
2022-11-19T11:36:36.623Z,20.13
2022-11-19T11:39:05.135Z,21.43
2022-11-19T11:44:38.362Z,17.33
2022-11-19T11:47:14.056Z,16.10
2022-11-19T11:49:42.754Z,19.03
2022-11-19T11:52:21.055Z,17.47
2022-11-19T11:54:56.816Z,17.73
2022-11-19T11:57:27.514Z,18.17
2022-11-19T11:59:55.415Z,19.23
2022-11-19T12:02:27.143Z,17.17
2022-11-19T12:04:55.278Z,17.13
2022-11-19T12:07:53.701Z,17.60
2022-11-19T12:10:27.700Z,16.27
2022-11-19T12:13:07.268Z,18.07
2022-11-19T12:15:41.306Z,16.10
2022-11-19T12:18:12.037Z,17.10
2022-11-19T12:20:41.780Z,16.67
2022-11-19T12:23:17.418Z,16.47
2022-11-19T12:25:49.709Z,18.13
2022-11-19T12:28:31.997Z,18.73
2022-11-19T12:31:06.008Z,16.40
2022-11-19T12:33:41.139Z,17.57
2022-11-19T12:36:13.011Z,17.43
2022-11-19T12:38:45.582Z,16.33
2022-11-19T12:41:27.956Z,17.90
2022-11-19T12:43:58.139Z,16.77
2022-11-19T12:46:39.093Z,17.57
2022-11-19T12:49:36.424Z,17.17
2022-11-19T12:52:08.852Z,16.60
2022-11-19T12:54:45.088Z,14.80
2022-11-19T12:57:25.468Z,15.73
2022-11-19T13:00:05.879Z,16.57
2022-11-19T13:02:38.151Z,16.40
2022-11-19T13:05:09.548Z,16.47
2022-11-19T13:07:38.765Z,15.87
2022-11-19T13:10:13.545Z,15.70
2022-11-19T13:12:43.996Z,11.87
2022-11-19T13:15:18.070Z,16.00
2022-11-19T13:17:46.485Z,13.47
2022-11-19T13:20:21.804Z,14.17
2022-11-19T13:22:49.644Z,15.23
2022-11-19T13:25:19.508Z,13.67
2022-11-19T13:27:50.353Z,16.33
2022-11-19T13:30:20.939Z,12.87
2022-11-19T13:32:52.480Z,12.53
2022-11-19T13:35:21.640Z,12.77
2022-11-19T13:37:58.253Z,13.57
2022-11-19T13:40:28.151Z,13.00
2022-11-19T13:46:07.056Z,17.30
2022-11-19T13:48:35.739Z,13.43
2022-11-19T13:51:04.395Z,13.93
2022-11-19T13:53:33.738Z,12.57
2022-11-19T13:56:01.626Z,12.63
2022-11-19T13:58:33.386Z,13.60
2022-11-19T14:01:31.716Z,13.17
2022-11-19T14:04:15.979Z,11.87
2022-11-19T14:07:09.811Z,12.27
2022-11-19T14:09:39.257Z,11.70
2022-11-19T14:12:26.532Z,14.23
2022-11-19T14:15:19.435Z,13.03
2022-11-19T14:18:08.157Z,14.53
2022-11-19T14:20:55.761Z,12.30
2022-11-19T14:24:00.748Z,10.27
2022-11-19T14:27:03.634Z,12.93
2022-11-19T14:29:54.056Z,15.30
2022-11-19T14:32:30.737Z,14.03
2022-11-19T14:35:42.367Z,14.07
2022-11-19T14:38:35.910Z,13.10
2022-11-19T14:41:22.765Z,13.53
2022-11-19T14:44:12.951Z,12.03
2022-11-19T14:46:42.301Z,11.80
2022-11-19T14:49:33.119Z,12.23
2022-11-19T14:52:02.657Z,12.77
2022-11-19T14:54:36.507Z,11.70
2022-11-19T14:57:07.221Z,11.30
2022-11-19T14:59:37.486Z,11.97
2022-11-19T15:02:13.074Z,12.23
2022-11-19T15:04:42.977Z,12.10
2022-11-19T15:07:13.096Z,12.23
2022-11-19T15:10:24.940Z,11.17
2022-11-19T15:13:03.607Z,12.67
2022-11-19T15:15:36.965Z,11.10
2022-11-19T15:18:25.448Z,13.20
2022-11-19T15:21:03.292Z,11.83
2022-11-19T15:23:35.233Z,11.00
2022-11-19T15:26:10.676Z,11.37
2022-11-19T15:28:43.698Z,12.23
2022-11-19T15:31:25.410Z,11.80
2022-11-19T15:34:15.194Z,12.57
2022-11-19T15:36:43.841Z,11.07
2022-11-19T15:39:16.427Z,11.13
2022-11-19T15:42:00.256Z,14.10
2022-11-19T15:44:29.884Z,12.20
2022-11-19T15:46:58.999Z,13.10
2022-11-19T15:49:27.956Z,10.93
2022-11-19T15:52:00.282Z,12.37
2022-11-19T15:54:30.466Z,12.70
2022-11-19T15:56:59.460Z,12.67
2022-11-19T15:59:27.617Z,10.93
2022-11-19T16:02:00.232Z,11.97
2022-11-19T16:04:32.546Z,13.80
2022-11-19T16:07:00.491Z,13.77
2022-11-19T16:09:30.077Z,12.40
2022-11-19T16:12:15.633Z,10.07
2022-11-19T16:15:07.370Z,13.07
2022-11-19T16:17:43.895Z,10.93
2022-11-19T16:20:21.331Z,10.93
2022-11-19T16:22:52.384Z,12.77
2022-11-19T16:25:31.124Z,13.70
2022-11-19T16:28:05.769Z,11.23
2022-11-19T16:30:40.880Z,15.93
2022-11-19T16:33:14.008Z,11.47
2022-11-19T16:35:43.345Z,11.40
2022-11-19T16:38:15.529Z,11.60
2022-11-19T16:41:02.703Z,12.97
2022-11-19T16:43:30.597Z,13.43
2022-11-19T16:45:58.392Z,12.70
2022-11-19T16:48:55.105Z,13.10
2022-11-19T16:51:36.855Z,12.80
2022-11-19T16:54:05.635Z,12.63
2022-11-19T16:56:36.502Z,12.60
2022-11-19T16:59:05.428Z,15.47
2022-11-19T17:01:33.295Z,13.23
2022-11-19T17:04:03.540Z,12.77
2022-11-19T17:06:32.652Z,14.83
2022-11-19T17:09:01.260Z,12.43
2022-11-19T17:12:08.635Z,13.67
2022-11-19T17:14:48.189Z,13.57
2022-11-19T17:17:26.749Z,13.17
2022-11-19T17:19:56.380Z,13.90
2022-11-19T17:22:24.872Z,13.67
2022-11-19T17:24:52.950Z,15.23
2022-11-19T17:27:26.719Z,15.80
2022-11-19T17:29:56.946Z,14.77
2022-11-19T17:32:24.856Z,13.47
2022-11-19T17:34:55.261Z,14.07
2022-11-19T17:37:23.089Z,14.57
2022-11-19T17:39:51.066Z,15.43
2022-11-19T17:42:36.600Z,14.50
2022-11-19T17:45:10.824Z,17.77
2022-11-19T17:47:39.068Z,16.23
2022-11-19T17:50:08.001Z,17.03
2022-11-19T17:52:35.854Z,15.13
2022-11-19T17:55:11.423Z,18.60
2022-11-19T17:57:42.491Z,17.13
2022-11-19T18:00:13.281Z,16.43
2022-11-19T18:02:41.169Z,15.00
2022-11-19T18:05:14.575Z,15.10
2022-11-19T18:07:42.547Z,17.23
2022-11-19T18:10:10.714Z,17.83
2022-11-19T18:12:38.590Z,16.53
2022-11-19T18:15:07.223Z,17.53
2022-11-19T18:17:36.428Z,18.47
2022-11-19T18:20:04.619Z,16.17
2022-11-19T18:22:32.542Z,16.93
2022-11-19T18:25:00.650Z,15.60
2022-11-19T18:27:28.468Z,17.47
2022-11-19T18:29:56.672Z,17.27
2022-11-19T18:32:24.583Z,17.47
2022-11-19T18:34:57.935Z,17.00
2022-11-19T18:37:29.285Z,17.27
2022-11-19T18:39:57.377Z,18.73
2022-11-19T18:42:29.697Z,18.33
2022-11-19T18:44:56.478Z,19.30
2022-11-19T18:47:26.334Z,17.57
2022-11-19T18:49:55.973Z,20.07
2022-11-19T18:52:24.191Z,19.17
2022-11-19T18:54:52.239Z,21.57
2022-11-19T18:57:20.128Z,19.17
2022-11-19T18:59:48.109Z,20.13
2022-11-19T19:02:17.157Z,19.73
2022-11-19T19:04:50.869Z,18.77
2022-11-19T19:07:20.507Z,20.57
2022-11-19T19:09:48.386Z,19.77
2022-11-19T19:12:18.181Z,20.03
2022-11-19T19:14:47.083Z,18.50
2022-11-19T19:17:15.495Z,19.63
2022-11-19T19:19:43.305Z,21.37
2022-11-19T19:22:11.068Z,19.77
2022-11-19T19:24:40.628Z,17.47
2022-11-19T19:27:08.497Z,18.53
2022-11-19T19:29:36.724Z,20.87
2022-11-19T19:32:04.765Z,20.77
2022-11-19T19:34:32.731Z,19.43
2022-11-19T19:37:00.612Z,20.73
2022-11-19T19:39:28.582Z,19.13
2022-11-19T19:41:57.991Z,20.67
2022-11-19T19:44:25.839Z,23.33
2022-11-19T19:46:53.828Z,23.33
2022-11-19T19:49:22.369Z,18.70
2022-11-19T19:51:50.879Z,24.77
2022-11-19T19:54:18.716Z,20.23
2022-11-19T19:56:46.677Z,22.97
2022-11-19T19:59:16.201Z,21.50
2022-11-19T20:01:45.269Z,23.30
2022-11-19T20:04:13.238Z,21.53
2022-11-19T20:06:42.349Z,22.57
2022-11-19T20:09:10.311Z,21.10
2022-11-19T20:11:38.886Z,25.17
2022-11-19T20:14:06.966Z,23.80
2022-11-19T20:16:36.368Z,23.07
2022-11-19T20:19:04.267Z,22.80
2022-11-19T20:21:34.052Z,21.73
2022-11-19T20:24:04.878Z,23.23
2022-11-19T20:26:35.281Z,27.80
2022-11-19T20:29:04.103Z,22.70
2022-11-19T20:31:32.020Z,39.97
2022-11-19T20:34:01.923Z,25.93
2022-11-19T20:36:31.183Z,25.03
2022-11-19T20:38:59.164Z,23.63
2022-11-19T20:41:44.557Z,21.03
2022-11-19T20:44:22.206Z,18.93
2022-11-19T20:46:51.306Z,24.37
2022-11-19T20:49:21.678Z,21.33
2022-11-19T20:51:49.674Z,20.43
2022-11-19T20:54:17.767Z,22.20
2022-11-19T20:56:45.889Z,17.43
2022-11-19T20:59:14.080Z,21.60
2022-11-19T21:01:42.715Z,18.43
2022-11-19T21:04:11.754Z,16.97
2022-11-19T21:06:41.417Z,18.23
2022-11-19T21:09:10.004Z,17.73
2022-11-19T21:11:37.945Z,18.57
2022-11-19T21:14:06.334Z,19.13
2022-11-19T21:16:34.638Z,20.27
2022-11-19T21:19:03.386Z,20.13
2022-11-19T21:21:31.716Z,21.33
2022-11-19T21:24:01.596Z,19.70
2022-11-19T21:26:29.733Z,13.77
2022-11-19T21:28:59.182Z,12.80
2022-11-19T21:31:38.483Z,9.37
2022-11-19T21:34:07.882Z,10.93
2022-11-19T21:36:35.882Z,9.73
2022-11-19T21:39:05.611Z,9.63
2022-11-19T21:41:33.533Z,10.37
2022-11-19T21:44:01.807Z,11.70
2022-11-19T21:46:29.881Z,13.43
2022-11-19T21:48:57.812Z,13.07
2022-11-19T21:51:25.879Z,11.23
2022-11-19T21:53:55.214Z,16.03
2022-11-19T21:56:24.496Z,10.33
2022-11-19T21:58:52.899Z,10.03
2022-11-19T22:01:20.874Z,10.37
2022-11-19T22:03:48.820Z,11.43
2022-11-19T22:06:16.693Z,11.57
2022-11-19T22:08:44.537Z,12.63
2022-11-19T22:11:31.700Z,11.27
2022-11-19T22:14:02.789Z,12.57
2022-11-19T22:16:30.809Z,12.20
2022-11-19T22:18:58.644Z,9.43
2022-11-19T22:21:26.914Z,9.83
2022-11-19T22:23:54.790Z,10.03
2022-11-19T22:26:22.689Z,9.53
2022-11-19T22:28:50.611Z,10.90
2022-11-19T22:31:20.295Z,9.03
2022-11-19T22:33:51.527Z,9.97
2022-11-19T22:36:20.031Z,10.47
2022-11-19T22:38:48.152Z,10.07
2022-11-19T22:41:17.432Z,11.40
2022-11-19T22:43:45.504Z,9.47
2022-11-19T22:46:14.048Z,9.83
2022-11-19T22:48:43.184Z,10.00
2022-11-19T22:51:12.596Z,10.60
2022-11-19T22:53:40.417Z,10.77
2022-11-19T22:56:09.793Z,10.97
2022-11-19T22:58:37.775Z,8.90
2022-11-19T23:01:05.698Z,9.50
2022-11-19T23:03:33.677Z,9.73
2022-11-19T23:06:02.871Z,11.00
2022-11-19T23:08:30.963Z,9.40
2022-11-19T23:10:59.998Z,12.27
2022-11-19T23:13:31.922Z,10.13
2022-11-19T23:16:05.398Z,13.17
2022-11-19T23:18:34.245Z,12.13
2022-11-19T23:21:04.636Z,11.40
2022-11-19T23:23:35.004Z,11.93
2022-11-19T23:26:04.692Z,12.47
2022-11-19T23:28:32.942Z,11.23
2022-11-19T23:31:04.084Z,10.97
2022-11-19T23:33:31.978Z,12.60
2022-11-19T23:36:05.263Z,12.73
2022-11-19T23:38:33.126Z,14.87
2022-11-19T23:41:01.029Z,51.67
2022-11-19T23:43:36.263Z,10.07
2022-11-19T23:46:04.485Z,10.33
2022-11-19T23:48:32.556Z,9.67
2022-11-19T23:51:07.481Z,14.53
2022-11-19T23:53:35.661Z,9.37
2022-11-19T23:56:03.897Z,9.77
2022-11-19T23:58:31.654Z,9.17
